createdAt,value
2022-08-04T00:02:03.236Z,20.95
2022-08-04T00:07:16.281Z,20.92
2022-08-04T00:12:20.208Z,20.90
2022-08-04T00:17:25.892Z,20.75
2022-08-04T00:22:29.522Z,20.65
2022-08-04T00:27:32.163Z,20.60
2022-08-04T00:32:41.255Z,20.43
2022-08-04T00:37:46.831Z,20.32
2022-08-04T00:42:59.703Z,20.38
2022-08-04T00:48:22.275Z,20.36
2022-08-04T00:53:29.778Z,20.39
2022-08-04T00:58:59.370Z,20.18
2022-08-04T01:04:10.483Z,20.07
2022-08-04T01:09:29.967Z,19.91
2022-08-04T01:14:49.613Z,19.94
2022-08-04T01:20:07.455Z,20.05
2022-08-04T01:25:41.335Z,19.80
2022-08-04T01:30:49.155Z,19.69
2022-08-04T01:35:56.411Z,19.78
2022-08-04T01:41:04.051Z,19.74
2022-08-04T01:46:05.836Z,19.71
2022-08-04T01:51:10.023Z,19.59
2022-08-04T01:56:12.801Z,19.59
2022-08-04T02:01:14.517Z,19.34
2022-08-04T02:06:33.108Z,19.59
2022-08-04T02:11:34.910Z,19.44
2022-08-04T02:16:52.537Z,19.25
2022-08-04T02:22:03.651Z,19.23
2022-08-04T02:27:06.128Z,19.45
2022-08-04T02:32:15.366Z,19.34
2022-08-04T02:37:17.973Z,19.13
2022-08-04T02:42:20.130Z,18.86
2022-08-04T02:48:08.032Z,19.02
2022-08-04T02:52:50.337Z,19.20
2022-08-04T02:57:55.161Z,18.83
2022-08-04T03:03:33.614Z,18.81
2022-08-04T03:08:53.696Z,18.96
2022-08-04T03:14:29.137Z,18.81
2022-08-04T03:19:43.059Z,18.84
2022-08-04T03:25:14.636Z,18.72
2022-08-04T03:30:20.521Z,18.59
2022-08-04T03:35:59.552Z,18.46
2022-08-04T03:41:13.124Z,18.48
2022-08-04T03:46:32.740Z,18.67
2022-08-04T03:52:02.818Z,18.61
2022-08-04T03:57:35.279Z,18.79
2022-08-04T04:02:56.265Z,18.94
2022-08-04T04:08:01.846Z,18.62
2022-08-04T04:13:35.332Z,18.63
2022-08-04T04:18:46.755Z,18.82
2022-08-04T04:24:18.877Z,18.88
2022-08-04T04:29:57.944Z,18.96
2022-08-04T04:35:29.251Z,19.53
2022-08-04T04:41:08.059Z,20.87
2022-08-04T04:46:21.547Z,20.71
2022-08-04T04:51:31.611Z,21.32
2022-08-04T04:56:54.838Z,21.84
2022-08-04T05:02:06.280Z,21.53
2022-08-04T05:07:42.029Z,21.79
2022-08-04T05:14:36.199Z,22.11
2022-08-04T05:18:28.633Z,21.95
2022-08-04T05:23:37.648Z,21.90
2022-08-04T05:29:01.014Z,22.14
2022-08-04T05:34:13.970Z,23.22
2022-08-04T05:39:20.205Z,23.28
2022-08-04T05:44:23.826Z,23.08
2022-08-04T05:49:28.325Z,23.17
2022-08-04T05:54:35.398Z,23.35
2022-08-04T05:59:40.905Z,23.85
2022-08-04T06:04:45.776Z,24.16
2022-08-04T06:09:47.688Z,24.08
2022-08-04T06:14:55.044Z,23.92
2022-08-04T06:20:18.470Z,24.38
2022-08-04T06:25:28.368Z,25.95
2022-08-04T06:30:32.511Z,27.63
2022-08-04T06:35:35.353Z,28.99
2022-08-04T06:40:37.085Z,30.26
2022-08-04T06:45:41.309Z,29.79
2022-08-04T06:51:27.119Z,27.70
2022-08-04T06:56:09.262Z,27.26
2022-08-04T07:01:12.988Z,27.81
2022-08-04T07:06:15.175Z,29.05
2022-08-04T07:11:17.829Z,30.97
2022-08-04T07:16:21.771Z,29.97
2022-08-04T07:21:35.721Z,29.73
2022-08-04T07:26:37.557Z,30.41
2022-08-04T07:31:39.527Z,30.96
2022-08-04T07:36:50.495Z,32.71
2022-08-04T07:41:54.280Z,35.38
2022-08-04T07:46:56.181Z,37.66
2022-08-04T07:51:58.936Z,37.65
2022-08-04T07:57:01.303Z,38.04
2022-08-04T08:02:03.456Z,38.02
2022-08-04T08:07:05.219Z,41.03
2022-08-04T08:12:37.804Z,40.24
2022-08-04T08:17:30.796Z,42.98
2022-08-04T08:22:32.752Z,40.13
2022-08-04T08:27:36.943Z,45.85
2022-08-04T08:32:40.746Z,40.83
2022-08-04T08:37:58.535Z,41.95
2022-08-04T08:44:05.868Z,41.16
2022-08-04T08:50:01.611Z,44.01
2022-08-04T08:54:43.346Z,43.59
2022-08-04T09:00:07.549Z,44.15
2022-08-04T09:05:24.492Z,43.34
2022-08-04T09:11:00.149Z,39.92
2022-08-04T09:16:04.577Z,41.16
2022-08-04T09:21:23.205Z,41.47
2022-08-04T09:26:44.343Z,41.34
2022-08-04T09:32:07.356Z,43.46
2022-08-04T09:37:23.734Z,44.33
2022-08-04T09:42:45.335Z,45.62
2022-08-04T09:47:53.329Z,45.42
2022-08-04T09:53:32.768Z,42.62
2022-08-04T09:59:18.380Z,45.26
2022-08-04T10:04:21.918Z,46.21
2022-08-04T10:09:34.527Z,41.65
2022-08-04T10:14:52.269Z,40.57
2022-08-04T10:20:05.231Z,41.89
2022-08-04T10:26:05.072Z,44.78
2022-08-04T10:30:58.584Z,42.39
2022-08-04T10:36:04.575Z,43.45
2022-08-04T10:41:31.520Z,42.28
2022-08-04T10:46:38.182Z,44.05
2022-08-04T10:51:58.608Z,45.49
2022-08-04T10:57:08.690Z,38.99
2022-08-04T11:02:47.714Z,37.50
2022-08-04T11:07:53.953Z,39.22
2022-08-04T11:13:01.978Z,41.62
2022-08-04T11:18:16.278Z,40.54
2022-08-04T11:23:23.969Z,38.44
2022-08-04T11:29:07.115Z,40.97
2022-08-04T11:34:15.954Z,41.72
2022-08-04T11:39:33.928Z,39.62
2022-08-04T11:45:07.184Z,40.80
2022-08-04T11:50:14.499Z,40.16
2022-08-04T11:55:19.443Z,42.50
2022-08-04T12:00:22.495Z,41.11
2022-08-04T12:05:37.777Z,41.31
2022-08-04T12:10:57.709Z,40.78
2022-08-04T12:16:05.257Z,43.73
2022-08-04T12:21:15.106Z,41.11
2022-08-04T12:26:29.120Z,37.82
2022-08-04T12:31:49.471Z,40.69
2022-08-04T12:37:02.047Z,41.08
2022-08-04T12:42:21.532Z,42.49
2022-08-04T12:47:29.096Z,41.55
2022-08-04T12:58:12.114Z,38.80
2022-08-04T13:03:17.448Z,37.60
2022-08-04T13:08:21.428Z,40.73
2022-08-04T13:13:26.946Z,42.10
2022-08-04T13:18:32.491Z,38.86
2022-08-04T13:23:36.132Z,38.84
2022-08-04T13:29:00.966Z,41.96
2022-08-04T13:34:19.507Z,40.25
2022-08-04T13:39:24.043Z,39.34
2022-08-04T13:44:30.558Z,37.60
2022-08-04T13:49:42.984Z,37.08
2022-08-04T13:54:54.237Z,38.18
2022-08-04T14:00:00.279Z,38.22
2022-08-04T14:05:18.749Z,37.20
2022-08-04T14:10:22.526Z,37.04
2022-08-04T14:16:02.233Z,36.41
2022-08-04T14:21:11.433Z,35.81
2022-08-04T14:26:20.998Z,36.02
2022-08-04T14:31:33.508Z,36.30
2022-08-04T14:37:17.123Z,36.27
2022-08-04T14:42:05.921Z,36.85
2022-08-04T14:47:13.296Z,35.77
2022-08-04T14:52:24.386Z,35.91
2022-08-04T14:57:27.351Z,35.66
2022-08-04T15:02:30.056Z,35.25
2022-08-04T15:07:32.305Z,35.54
2022-08-04T15:12:34.088Z,35.75
2022-08-04T15:17:35.902Z,35.30
2022-08-04T15:22:37.562Z,36.26
2022-08-04T15:27:41.543Z,37.07
2022-08-04T15:32:48.719Z,37.36
2022-08-04T15:38:02.211Z,37.14
2022-08-04T15:43:42.232Z,37.81
2022-08-04T15:48:43.929Z,36.34
2022-08-04T15:54:01.249Z,36.28
2022-08-04T15:59:05.402Z,36.87
2022-08-04T16:04:24.695Z,37.13
2022-08-04T16:09:45.209Z,35.88
2022-08-04T16:14:47.667Z,36.13
2022-08-04T16:19:57.390Z,35.99
2022-08-04T16:24:59.079Z,35.89
2022-08-04T16:30:10.771Z,35.56
2022-08-04T16:35:26.419Z,35.72
2022-08-04T16:40:36.576Z,36.12
2022-08-04T16:45:52.695Z,35.82
2022-08-04T16:51:05.474Z,35.76
2022-08-04T16:56:11.010Z,35.59
2022-08-04T17:01:21.998Z,35.44
2022-08-04T17:06:37.978Z,35.06
2022-08-04T17:11:41.545Z,34.98
2022-08-04T17:16:43.652Z,35.01
2022-08-04T17:21:45.773Z,34.83
2022-08-04T17:26:53.741Z,34.69
2022-08-04T17:31:57.150Z,34.70
2022-08-04T17:37:31.202Z,34.60
2022-08-04T17:42:33.373Z,34.46
2022-08-04T17:47:38.211Z,34.14
2022-08-04T17:52:45.186Z,34.08
2022-08-04T17:57:52.374Z,33.93
2022-08-04T18:02:54.925Z,33.59
2022-08-04T18:08:39.099Z,33.27
2022-08-04T18:13:18.729Z,33.03
2022-08-04T18:18:23.892Z,32.87
2022-08-04T18:23:31.825Z,32.44
2022-08-04T18:28:34.910Z,32.10
2022-08-04T18:33:40.042Z,31.95
2022-08-04T18:38:54.527Z,31.59
2022-08-04T18:43:57.737Z,31.50
2022-08-04T18:49:01.617Z,31.37
2022-08-04T18:54:04.755Z,31.05
2022-08-04T18:59:10.206Z,31.32
2022-08-04T19:04:32.760Z,30.91
2022-08-04T19:09:51.492Z,30.48
2022-08-04T19:14:57.769Z,30.14
2022-08-04T19:20:00.643Z,29.67
2022-08-04T19:25:02.330Z,29.48
2022-08-04T19:30:04.711Z,29.38
2022-08-04T19:35:06.663Z,28.94
2022-08-04T19:40:15.439Z,28.87
2022-08-04T19:45:17.809Z,28.66
2022-08-04T19:50:19.751Z,28.78
2022-08-04T19:55:36.799Z,28.35
2022-08-04T20:00:44.802Z,28.29
2022-08-04T20:05:55.846Z,28.22
2022-08-04T20:10:58.197Z,28.05
2022-08-04T20:16:01.078Z,27.99
2022-08-04T20:21:02.743Z,27.78
2022-08-04T20:26:04.445Z,27.63
2022-08-04T20:31:06.408Z,27.55
2022-08-04T20:36:10.079Z,27.41
2022-08-04T20:41:11.737Z,27.55
2022-08-04T20:46:18.247Z,27.46
2022-08-04T20:51:31.911Z,27.23
2022-08-04T20:56:35.731Z,27.06
2022-08-04T21:01:37.435Z,26.90
2022-08-04T21:06:39.267Z,26.87
2022-08-04T21:11:42.542Z,26.67
2022-08-04T21:16:56.035Z,26.60
2022-08-04T21:21:58.260Z,26.48
2022-08-04T21:27:01.961Z,26.31
2022-08-04T21:32:05.845Z,26.24
2022-08-04T21:37:11.457Z,26.23
2022-08-04T21:42:29.257Z,25.99
2022-08-04T21:47:45.788Z,25.96
2022-08-04T21:52:50.892Z,25.76
2022-08-04T21:57:54.252Z,25.62
2022-08-04T22:03:02.809Z,25.46
2022-08-04T22:08:05.102Z,25.20
2022-08-04T22:13:07.834Z,25.24
2022-08-04T22:18:09.642Z,25.24
2022-08-04T22:23:16.707Z,24.99
2022-08-04T22:28:18.920Z,24.85
2022-08-04T22:33:22.994Z,24.75
2022-08-04T22:38:41.780Z,24.76
2022-08-04T22:43:46.860Z,24.71
2022-08-04T22:48:57.042Z,24.78
2022-08-04T22:54:00.123Z,24.64
2022-08-04T22:59:02.106Z,24.54
2022-08-04T23:04:04.561Z,24.37
2022-08-04T23:09:06.212Z,24.32
2022-08-04T23:14:18.014Z,24.25
2022-08-04T23:19:19.658Z,24.10
2022-08-04T23:24:30.026Z,24.00
2022-08-04T23:29:53.001Z,23.97
2022-08-04T23:34:53.568Z,23.86
2022-08-04T23:40:18.033Z,23.67
2022-08-04T23:45:52.293Z,23.59
2022-08-04T23:50:39.639Z,23.63
2022-08-04T23:55:41.279Z,23.43
